Time;durP1;ratioP1;P1;durP2;ratioP2;P2;SDS_P1;SDS_P2;PMS_P1;PMS_P2;Temp;Humidity;BMP_temperature;BMP_pressure;BME280_temperature;BME280_humidity;BME280_pressure;Samples;Min_cycle;Max_cycle;Signal;HPM_P1;HPM_P2
2021/12/26 00:00:43;;;;;;;;;24.67;20.00;;;;;13.06;72.89;100089.97;4988344;28;45369;-87
2021/12/26 00:03:08;;;;;;;;;19.67;18.33;;;;;12.40;72.84;99980.06;4991751;28;45377;-87
2021/12/26 00:05:34;;;;;;;;;21.67;20.00;;;;;12.40;72.80;99987.22;4979973;28;45500;-87
2021/12/26 00:08:00;;;;;;;;;18.00;18.00;;;;;12.68;72.59;100037.13;4980264;28;45457;-87
2021/12/26 00:10:27;;;;;;;;;22.67;20.33;;;;;12.94;72.45;100072.03;4972334;28;45382;-87
2021/12/26 00:12:53;;;;;;;;;27.00;22.67;;;;;12.58;72.91;100022.63;4977105;28;45709;-87
2021/12/26 00:15:19;;;;;;;;;22.67;22.33;;;;;12.07;72.84;99928.78;5005621;28;45396;-87
2021/12/26 00:17:44;;;;;;;;;22.67;20.00;;;;;12.22;72.75;99966.06;4976872;28;46238;-87
2021/12/26 00:20:11;;;;;;;;;23.33;22.33;;;;;12.95;72.96;100079.97;4975878;28;45405;-87
2021/12/26 00:22:38;;;;;;;;;19.00;19.00;;;;;12.96;72.49;100076.31;4985322;28;45444;-86
2021/12/26 00:25:05;;;;;;;;;25.00;22.67;;;;;12.59;72.62;100017.16;4992424;28;45526;-87
2021/12/26 00:27:31;;;;;;;;;22.00;18.67;;;;;12.25;72.43;99973.88;4990748;28;45499;-87
2021/12/26 00:29:57;;;;;;;;;19.33;19.33;;;;;12.40;72.52;99974.72;4981185;28;45374;-87
2021/12/26 00:32:22;;;;;;;;;24.00;18.33;;;;;12.16;72.12;99934.38;4984575;28;45464;-87
2021/12/26 00:34:50;;;;;;;;;24.00;21.00;;;;;12.78;72.28;100043.63;4997893;28;45598;-87
2021/12/26 00:37:16;;;;;;;;;27.33;23.00;;;;;12.78;72.33;100032.03;4982004;28;46182;-87
2021/12/26 00:39:42;;;;;;;;;21.00;19.33;;;;;12.32;72.44;99941.44;4989537;28;45434;-86
2021/12/26 00:42:07;;;;;;;;;26.33;21.67;;;;;12.37;72.27;99952.69;4977016;28;45188;-87
2021/12/26 00:44:38;;;;;;;;;20.67;20.67;;;;;13.04;72.44;100049.94;4997847;28;45240;-87
2021/12/26 00:47:04;;;;;;;;;20.33;18.67;;;;;12.92;72.67;100032.00;4981986;28;46264;-87
2021/12/26 00:49:30;;;;;;;;;29.00;20.67;;;;;12.29;72.59;99920.25;4994819;28;45377;-87
2021/12/26 00:51:55;;;;;;;;;25.67;21.33;;;;;12.28;72.10;99926.56;4989644;28;45899;-87
2021/12/26 00:54:21;;;;;;;;;21.67;18.67;;;;;12.66;72.33;99981.06;4984444;28;45464;-87
2021/12/26 00:56:46;;;;;;;;;23.67;19.00;;;;;12.62;72.26;99962.66;4975927;28;45713;-86
2021/12/26 00:59:12;;;;;;;;;25.67;23.33;;;;;12.41;72.38;99938.19;4989296;28;45559;-87
2021/12/26 01:01:37;;;;;;;;;21.67;18.00;;;;;12.40;72.09;99945.31;5002298;28;45435;-87
2021/12/26 01:04:03;;;;;;;;;22.33;19.67;;;;;12.38;72.36;99933.88;5003061;28;45456;-87
2021/12/26 01:06:28;;;;;;;;;31.67;20.67;;;;;13.14;72.30;100058.22;4994941;28;47428;-87
2021/12/26 01:08:54;;;;;;;;;20.33;18.67;;;;;13.00;72.06;100023.50;4994269;28;45607;-86
2021/12/26 01:11:41;;;;;;;;;25.33;19.00;;;;;13.13;72.00;100052.97;4976281;28;45444;-86
2021/12/26 01:14:11;;;;;;;;;18.33;18.00;;;;;13.10;72.20;100046.00;4989264;28;45504;-87
2021/12/26 01:16:38;;;;;;;;;23.33;21.67;;;;;12.60;72.06;99962.75;4977672;28;46201;-87
2021/12/26 01:19:16;;;;;;;;;24.33;18.67;;;;;12.81;71.94;99999.75;4984530;28;45919;-87
2021/12/26 01:21:44;;;;;;;;;17.00;17.00;;;;;12.46;71.83;99949.44;5010185;28;45352;-86
2021/12/26 01:24:14;;;;;;;;;21.33;19.00;;;;;13.12;72.14;100062.81;4985143;28;45743;-87
2021/12/26 01:26:40;;;;;;;;;20.67;19.00;;;;;12.42;71.50;99942.56;5000352;28;45305;-87
2021/12/26 01:29:06;;;;;;;;;21.33;19.33;;;;;12.28;71.98;99906.03;4991397;28;45412;-86
2021/12/26 01:31:32;;;;;;;;;21.67;19.33;;;;;12.70;71.69;99989.75;4991466;28;45462;-87
2021/12/26 01:34:02;;;;;;;;;21.33;17.67;;;;;12.72;72.26;99987.84;4983669;28;45464;-86
2021/12/26 01:36:29;;;;;;;;;21.67;21.00;;;;;12.85;71.99;100015.50;4982446;28;45311;-87
2021/12/26 01:38:57;;;;;;;;;27.67;22.67;;;;;13.10;71.74;100054.03;5004922;28;45518;-86
2021/12/26 01:41:23;;;;;;;;;23.33;20.67;;;;;12.75;71.99;100000.16;4975663;28;45422;-87
2021/12/26 01:43:52;;;;;;;;;24.00;18.67;;;;;13.09;71.71;100045.16;4988134;28;45377;-86
2021/12/26 01:46:18;;;;;;;;;21.00;16.00;;;;;12.63;71.87;99972.41;4975143;28;45177;-87
2021/12/26 01:48:44;;;;;;;;;25.67;21.00;;;;;12.60;71.79;99975.28;4988469;28;45491;-86
2021/12/26 01:51:09;;;;;;;;;22.00;19.67;;;;;12.97;72.00;100029.91;4988022;28;45588;-86
2021/12/26 01:53:39;;;;;;;;;23.33;20.00;;;;;12.70;72.08;99983.56;4999206;28;45601;-86
2021/12/26 01:56:09;;;;;;;;;18.67;17.67;;;;;12.79;72.17;100004.34;4994166;28;46310;-85
2021/12/26 01:58:36;;;;;;;;;21.67;18.00;;;;;12.77;72.18;100000.91;4993843;28;45364;-86
2021/12/26 02:01:10;;;;;;;;;20.33;20.33;;;;;13.01;72.37;100043.91;5007027;28;45485;-86
2021/12/26 02:03:37;;;;;;;;;18.33;18.33;;;;;12.46;72.53;99960.13;4977435;28;45483;-86
2021/12/26 02:06:04;;;;;;;;;19.33;18.00;;;;;12.59;72.24;99984.22;4976155;28;46177;-85
2021/12/26 02:08:30;;;;;;;;;20.00;17.33;;;;;13.05;72.38;100048.97;4974339;28;45459;-86
2021/12/26 02:10:59;;;;;;;;;21.00;16.67;;;;;12.53;72.37;99964.13;4975054;28;45911;-86
2021/12/26 02:13:25;;;;;;;;;24.00;21.33;;;;;12.08;72.16;99885.94;4977754;28;45378;-86
2021/12/26 02:15:51;;;;;;;;;20.33;19.67;;;;;12.73;72.09;100002.91;4990040;28;47588;-86
2021/12/26 02:18:17;;;;;;;;;18.67;18.67;;;;;12.52;71.83;99967.72;4989766;28;45581;-86
2021/12/26 02:21:04;;;;;;;;;14.33;14.33;;;;;12.82;72.15;100029.06;4992958;28;45466;-86
2021/12/26 02:23:39;;;;;;;;;18.00;17.00;;;;;12.31;71.75;99953.91;5003823;28;45325;-85
2021/12/26 02:28:38;;;;;;;;;21.33;21.33;;;;;12.52;72.68;99986.44;4984351;28;45505;-86
2021/12/26 02:31:05;;;;;;;;;21.33;17.67;;;;;12.70;72.75;100021.84;4993100;28;45372;-87
2021/12/26 02:33:31;;;;;;;;;18.67;18.00;;;;;12.78;73.26;100040.06;4994378;28;45277;-88
2021/12/26 02:35:56;;;;;;;;;21.00;21.00;;;;;12.53;73.67;100014.91;4986048;28;45960;-87
2021/12/26 02:38:22;;;;;;;;;26.33;22.33;;;;;11.64;73.70;99862.88;4998847;28;45653;-87
2021/12/26 02:40:50;;;;;;;;;18.00;18.00;;;;;12.44;73.95;99992.28;4989560;28;45274;-86
2021/12/26 02:43:21;;;;;;;;;23.67;20.33;;;;;12.81;74.21;100038.06;4978637;28;45584;-87
2021/12/26 02:45:47;;;;;;;;;23.67;19.33;;;;;12.78;74.29;100045.41;4974288;28;45597;-87
2021/12/26 02:48:13;;;;;;;;;22.00;18.67;;;;;12.28;74.06;99955.94;4989184;28;45604;-87
2021/12/26 02:50:40;;;;;;;;;20.33;19.00;;;;;11.73;73.35;99859.63;4986216;28;45477;-86
2021/12/26 02:53:07;;;;;;;;;23.00;18.33;;;;;12.75;74.07;100030.41;4989870;28;45324;-87
2021/12/26 02:55:34;;;;;;;;;24.67;19.67;;;;;12.24;74.47;99944.59;4991411;28;45397;-87
2021/12/26 02:58:04;;;;;;;;;21.00;19.00;;;;;11.79;74.55;99874.41;4974803;28;45442;-87
2021/12/26 03:00:34;;;;;;;;;21.67;20.33;;;;;12.14;74.52;99935.44;4982436;28;45412;-86
2021/12/26 03:03:02;;;;;;;;;19.67;15.67;;;;;12.76;73.77;100034.81;4982907;28;45437;-87
2021/12/26 03:05:37;;;;;;;;;22.33;21.67;;;;;12.72;73.97;100030.63;4993332;28;45506;-87
2021/12/26 03:08:06;;;;;;;;;22.33;20.00;;;;;12.15;74.33;99940.69;4988046;28;45437;-87
2021/12/26 03:10:33;;;;;;;;;22.33;17.67;;;;;12.73;74.69;100031.47;4975100;28;45417;-86
2021/12/26 03:13:05;;;;;;;;;23.33;21.33;;;;;12.11;74.42;99931.16;4982940;28;45610;-86
2021/12/26 03:15:32;;;;;;;;;18.00;17.33;;;;;11.88;74.43;99891.69;4985635;28;46132;-86
2021/12/26 03:17:58;;;;;;;;;18.00;17.00;;;;;12.08;73.95;99919.78;4989946;28;45522;-86
2021/12/26 03:20:30;;;;;;;;;26.00;21.67;;;;;12.07;74.75;99918.09;4984790;28;45590;-87
2021/12/26 03:22:59;;;;;;;;;15.67;15.67;;;;;12.15;73.80;99942.50;4983168;28;45172;-87
2021/12/26 03:25:25;;;;;;;;;26.33;20.33;;;;;12.75;74.63;100027.75;4974191;28;45466;-86
2021/12/26 03:27:50;;;;;;;;;21.33;17.33;;;;;12.74;74.67;100017.16;4972796;28;46216;-86
2021/12/26 03:30:19;;;;;;;;;20.67;20.33;;;;;12.42;74.13;99971.97;4977921;28;45912;-86
2021/12/26 03:32:46;;;;;;;;;23.67;22.00;;;;;12.62;74.09;100011.66;4974670;28;45520;-86
2021/12/26 03:35:11;;;;;;;;;16.33;15.33;;;;;12.78;73.94;100034.72;4974910;28;45677;-87
2021/12/26 03:37:39;;;;;;;;;21.33;20.33;;;;;11.97;74.16;99899.13;4974695;28;45414;-86
2021/12/26 03:40:06;;;;;;;;;23.00;22.33;;;;;12.30;74.25;99967.41;4981736;28;45628;-86
2021/12/26 03:42:32;;;;;;;;;20.33;20.00;;;;;12.19;73.93;99944.03;4976007;28;45476;-86
2021/12/26 03:44:58;;;;;;;;;20.00;18.33;;;;;12.17;74.49;99924.56;4988906;28;48672;-87
2021/12/26 03:47:23;;;;;;;;;23.33;20.33;;;;;12.47;73.93;99975.19;4973665;28;45231;-87
2021/12/26 03:49:50;;;;;;;;;18.00;16.33;;;;;11.98;73.76;99900.81;4985686;28;45518;-86
2021/12/26 03:52:16;;;;;;;;;21.67;17.00;;;;;12.23;73.90;99933.03;4987888;28;45436;-86
2021/12/26 03:54:41;;;;;;;;;20.00;20.00;;;;;11.74;74.06;99857.81;4988259;28;45460;-86
2021/12/26 03:57:07;;;;;;;;;18.67;17.33;;;;;11.90;74.78;99884.44;4992860;28;45428;-86
2021/12/26 03:59:32;;;;;;;;;21.33;18.67;;;;;11.86;74.39;99881.06;4990526;28;45621;-86
2021/12/26 04:01:58;;;;;;;;;22.33;21.00;;;;;12.09;74.18;99905.50;4987403;28;45551;-87
2021/12/26 04:04:24;;;;;;;;;20.33;19.33;;;;;11.78;73.82;99868.22;4974692;28;48712;-86
2021/12/26 04:06:49;;;;;;;;;22.00;19.33;;;;;12.34;73.88;99966.22;4975433;28;45372;-86
2021/12/26 04:09:15;;;;;;;;;22.33;19.33;;;;;12.44;74.11;99975.41;4976833;28;45523;-86
2021/12/26 04:11:44;;;;;;;;;20.00;19.00;;;;;11.94;74.34;99893.97;4982073;28;46115;-86
2021/12/26 04:14:10;;;;;;;;;23.00;20.67;;;;;12.72;74.28;100014.59;4992000;28;48441;-86
2021/12/26 04:16:35;;;;;;;;;17.33;15.67;;;;;12.09;74.07;99908.19;4992274;28;45504;-86
2021/12/26 04:19:01;;;;;;;;;21.33;20.00;;;;;12.20;73.94;99924.38;4991314;28;45550;-86
2021/12/26 04:21:26;;;;;;;;;23.67;20.67;;;;;12.29;74.08;99945.19;5002914;28;45594;-86
2021/12/26 04:23:51;;;;;;;;;20.00;20.00;;;;;12.57;73.69;99978.13;5011951;28;45338;-86
2021/12/26 04:26:17;;;;;;;;;22.67;19.33;;;;;11.79;73.65;99848.56;4982000;28;45547;-86
2021/12/26 04:28:42;;;;;;;;;19.00;19.00;;;;;12.62;74.00;99984.06;4979160;28;45407;-87
2021/12/26 04:31:08;;;;;;;;;21.33;19.00;;;;;12.08;73.76;99912.66;4991407;28;45505;-86
2021/12/26 04:33:33;;;;;;;;;23.33;21.00;;;;;12.00;73.58;99890.91;4976270;28;45603;-86
2021/12/26 04:35:59;;;;;;;;;24.67;20.67;;;;;12.18;73.77;99915.59;4981007;28;45363;-86
2021/12/26 04:38:24;;;;;;;;;22.33;18.33;;;;;12.42;74.01;99961.28;4976490;28;45487;-86
2021/12/26 04:40:51;;;;;;;;;21.33;21.33;;;;;12.00;73.71;99905.13;4992082;28;45562;-86
2021/12/26 04:43:19;;;;;;;;;21.00;20.00;;;;;11.90;74.10;99885.28;4977959;28;46218;-86
2021/12/26 04:45:45;;;;;;;;;16.67;14.33;;;;;12.19;74.30;99930.66;4987131;28;45608;-86
2021/12/26 04:48:10;;;;;;;;;25.00;22.00;;;;;12.34;74.24;99942.19;4994144;28;45483;-86
2021/12/26 04:50:36;;;;;;;;;20.67;19.33;;;;;11.73;74.27;99843.63;4992324;28;46473;-86
2021/12/26 04:53:01;;;;;;;;;24.67;22.00;;;;;12.70;74.01;99995.09;4978406;28;45964;-86
2021/12/26 04:55:27;;;;;;;;;26.33;21.00;;;;;11.96;73.91;99884.03;4975034;28;45656;-86
2021/12/26 04:57:53;;;;;;;;;21.00;20.00;;;;;12.10;74.21;99904.53;4990595;28;45392;-87
2021/12/26 05:00:22;;;;;;;;;20.33;19.00;;;;;12.29;73.94;99933.59;4994885;28;45450;-86
2021/12/26 05:02:48;;;;;;;;;20.33;20.33;;;;;12.66;74.24;99985.56;4992200;28;48158;-87
2021/12/26 05:05:14;;;;;;;;;22.00;19.33;;;;;11.76;74.54;99848.75;5002048;28;46993;-87
2021/12/26 05:07:42;;;;;;;;;21.67;19.67;;;;;11.52;74.29;99805.78;4988698;28;45606;-86
2021/12/26 05:10:11;;;;;;;;;20.67;18.67;;;;;12.59;74.52;99979.75;4990586;28;45264;-86
2021/12/26 05:12:36;;;;;;;;;17.33;17.33;;;;;12.38;74.45;99957.06;4977388;28;46201;-86
2021/12/26 05:15:04;;;;;;;;;23.00;21.33;;;;;12.52;75.04;99977.56;4987841;28;45429;-86
2021/12/26 05:17:30;;;;;;;;;19.67;18.33;;;;;11.87;74.83;99872.16;4986973;28;45529;-87
2021/12/26 05:19:56;;;;;;;;;21.00;21.00;;;;;12.51;74.83;99989.22;4990625;28;45520;-87
2021/12/26 05:22:21;;;;;;;;;20.67;19.67;;;;;11.91;74.60;99891.50;4993778;28;46976;-86
2021/12/26 05:24:48;;;;;;;;;18.67;17.67;;;;;11.58;74.63;99826.72;4988222;28;45617;-86
2021/12/26 05:27:14;;;;;;;;;22.00;18.33;;;;;11.46;74.92;99806.16;4978803;28;45480;-86
2021/12/26 05:29:39;;;;;;;;;17.33;17.33;;;;;12.47;75.26;99972.50;4990037;28;45472;-87
2021/12/26 05:32:04;;;;;;;;;20.33;17.00;;;;;12.49;75.31;99983.97;4989024;28;47690;-86
2021/12/26 05:34:30;;;;;;;;;20.33;17.67;;;;;11.91;75.13;99899.50;4991816;28;45392;-86
2021/12/26 05:36:58;;;;;;;;;19.00;17.33;;;;;11.93;75.13;99900.25;4989484;28;45545;-86
2021/12/26 05:39:23;;;;;;;;;19.33;19.33;;;;;11.59;75.29;99832.97;4995036;28;45411;-86
2021/12/26 05:41:49;;;;;;;;;18.67;17.67;;;;;12.27;75.30;99952.44;4992552;28;45987;-86
2021/12/26 05:44:14;;;;;;;;;21.00;18.33;;;;;11.77;74.92;99863.81;4988328;28;45478;-86
2021/12/26 05:46:39;;;;;;;;;22.00;19.67;;;;;11.78;74.85;99880.72;4994251;28;45919;-86
2021/12/26 05:49:05;;;;;;;;;19.67;17.00;;;;;12.08;75.60;99920.69;4989094;28;45483;-86
2021/12/26 05:51:32;;;;;;;;;20.33;18.67;;;;;11.76;75.07;99869.25;4993704;28;46904;-86
2021/12/26 05:53:57;;;;;;;;;20.67;20.67;;;;;11.47;75.31;99821.22;4974970;28;45410;-86
2021/12/26 05:56:23;;;;;;;;;22.00;18.00;;;;;11.57;75.49;99848.19;4984755;28;45346;-86
2021/12/26 05:58:48;;;;;;;;;23.67;21.33;;;;;11.65;75.25;99847.72;4975781;28;45468;-86
2021/12/26 06:01:14;;;;;;;;;16.33;16.33;;;;;12.32;75.05;99968.16;4990145;28;45894;-86
2021/12/26 06:03:40;;;;;;;;;20.33;19.00;;;;;12.29;75.14;99961.22;4990593;28;45530;-87
2021/12/26 06:06:05;;;;;;;;;20.00;17.33;;;;;11.69;74.92;99860.78;5009729;28;45375;-87
2021/12/26 06:08:31;;;;;;;;;20.00;16.67;;;;;12.16;75.36;99918.38;4988653;28;45390;-87
2021/12/26 06:10:56;;;;;;;;;20.00;16.67;;;;;11.74;75.00;99847.13;4992945;28;47218;-87
2021/12/26 06:13:22;;;;;;;;;17.67;16.67;;;;;11.87;74.95;99864.13;4990821;28;45417;-86
2021/12/26 06:15:47;;;;;;;;;17.33;14.00;;;;;11.75;74.67;99824.81;4978337;28;45507;-86
2021/12/26 06:18:13;;;;;;;;;17.67;16.67;;;;;12.64;74.75;99971.41;4981901;27;45401;-86
2021/12/26 06:20:38;;;;;;;;;14.67;14.67;;;;;11.78;74.98;99848.66;4987078;28;46407;-86
2021/12/26 06:23:04;;;;;;;;;17.67;15.67;;;;;11.98;74.34;99869.63;4983044;28;45635;-86
2021/12/26 06:25:29;;;;;;;;;18.67;15.00;;;;;11.11;74.68;99718.53;4994717;28;45482;-86
2021/12/26 06:27:55;;;;;;;;;17.00;17.00;;;;;11.99;74.36;99873.19;4993133;28;45661;-86
2021/12/26 06:30:20;;;;;;;;;15.67;13.67;;;;;12.71;74.49;99975.41;4994181;28;45196;-86
2021/12/26 06:32:46;;;;;;;;;18.67;17.00;;;;;12.73;74.69;99970.81;4989608;28;45265;-86
2021/12/26 06:35:12;;;;;;;;;19.67;16.00;;;;;12.50;74.28;99928.69;4976789;28;45634;-87
2021/12/26 06:37:38;;;;;;;;;16.67;16.67;;;;;12.78;74.25;99965.19;4978317;28;45464;-86
2021/12/26 06:40:08;;;;;;;;;10.33;10.00;;;;;12.08;74.16;99845.00;4990924;28;45556;-86
2021/12/26 06:42:39;;;;;;;;;19.67;18.33;;;;;12.37;73.94;99896.56;4986733;28;45394;-87
2021/12/26 06:45:05;;;;;;;;;14.33;12.33;;;;;12.32;73.97;99891.53;4974703;28;45304;-86
2021/12/26 06:47:30;;;;;;;;;13.67;13.67;;;;;12.29;73.93;99885.50;4982822;28;45384;-86
2021/12/26 06:49:56;;;;;;;;;16.33;15.67;;;;;11.94;74.13;99820.06;4978987;28;45603;-86
2021/12/26 06:52:21;;;;;;;;;13.33;12.33;;;;;12.30;73.59;99861.38;4977320;28;45547;-86
2021/12/26 06:54:47;;;;;;;;;12.67;12.67;;;;;12.23;73.72;99854.72;4981692;28;45313;-86
2021/12/26 06:57:12;;;;;;;;;13.67;11.67;;;;;12.50;73.41;99899.28;4989223;28;45437;-86
2021/12/26 06:59:38;;;;;;;;;10.33;10.33;;;;;12.36;73.62;99874.34;4987502;28;45569;-86
2021/12/26 07:02:03;;;;;;;;;14.00;13.33;;;;;12.33;73.17;99866.50;4985083;28;45326;-86
2021/12/26 07:04:29;;;;;;;;;11.67;11.00;;;;;13.01;73.29;99969.03;4986044;28;45241;-88
2021/12/26 07:06:54;;;;;;;;;11.00;8.67;;;;;12.56;73.52;99899.75;4989097;28;45483;-86
2021/12/26 07:09:19;;;;;;;;;11.00;11.00;;;;;12.32;73.55;99856.78;4975420;28;46365;-87
2021/12/26 07:11:45;;;;;;;;;11.00;9.33;;;;;12.12;73.35;99799.31;4993613;28;45424;-87
2021/12/26 07:14:10;;;;;;;;;10.33;9.67;;;;;12.60;72.84;99873.69;4991663;28;45436;-85
2021/12/26 07:16:35;;;;;;;;;11.00;9.67;;;;;12.41;73.06;99852.66;4992584;28;45678;-86
2021/12/26 07:19:01;;;;;;;;;11.33;11.33;;;;;12.28;73.01;99844.56;4984624;28;46269;-86
2021/12/26 07:21:26;;;;;;;;;11.33;10.33;;;;;12.78;73.20;99922.41;4992844;28;45642;-86
2021/12/26 07:23:51;;;;;;;;;14.67;11.00;;;;;12.87;73.30;99933.34;4987781;28;45393;-86
2021/12/26 07:26:17;;;;;;;;;9.67;9.00;;;;;12.65;73.18;99904.50;4977226;28;45231;-86
2021/12/26 07:28:43;;;;;;;;;11.67;11.67;;;;;12.88;73.40;99934.22;4983902;28;46265;-84
2021/12/26 07:31:09;;;;;;;;;13.33;13.33;;;;;12.36;73.22;99844.06;4988896;28;45894;-85
2021/12/26 07:33:34;;;;;;;;;14.33;12.67;;;;;12.53;73.20;99872.38;4977278;28;45463;-86
2021/12/26 07:35:59;;;;;;;;;13.00;11.33;;;;;13.23;73.09;99982.69;4985869;28;45415;-85
2021/12/26 07:38:25;;;;;;;;;9.67;8.67;;;;;13.07;72.92;99945.41;4993865;28;45917;-86
2021/12/26 07:40:50;;;;;;;;;13.33;13.33;;;;;13.20;72.57;99965.97;4978585;28;45622;-85
2021/12/26 07:43:16;;;;;;;;;25.33;24.67;;;;;13.08;73.25;99952.44;4983352;28;45769;-85
2021/12/26 07:45:41;;;;;;;;;55.50;43.50;;;;;13.12;73.34;99958.47;4993913;28;45497;-83
2021/12/26 07:48:07;;;;;;;;;12.67;10.33;;;;;13.17;73.03;99958.16;4988657;28;48249;-84
2021/12/26 07:50:32;;;;;;;;;14.00;11.00;;;;;12.31;73.31;99814.13;4982630;28;45445;-87
2021/12/26 07:53:04;;;;;;;;;11.50;9.00;;;;;12.74;72.50;99888.81;4992937;28;45388;-86
2021/12/26 07:55:30;;;;;;;;;2.67;1.00;;;;;13.28;72.87;99977.91;4974794;28;45514;-85
2021/12/26 07:57:55;;;;;;;;;9.00;9.00;;;;;12.94;72.84;99924.91;4973879;28;45879;-85
2021/12/26 08:00:21;;;;;;;;;19.00;17.33;;;;;13.31;73.21;99990.22;4979185;28;45400;-86
2021/12/26 08:02:47;;;;;;;;;7.33;7.33;;;;;12.53;72.87;99865.22;4984013;28;45352;-85
2021/12/26 08:05:13;;;;;;;;;15.00;10.33;;;;;12.95;72.90;99942.69;4973933;28;45551;-85
2021/12/26 08:07:39;;;;;;;;;15.33;13.00;;;;;12.41;72.75;99845.50;4994671;28;47464;-85
2021/12/26 08:10:05;;;;;;;;;11.67;11.67;;;;;12.35;73.51;99848.56;4991780;28;45265;-85
2021/12/26 08:12:30;;;;;;;;;9.00;9.00;;;;;12.56;73.00;99883.72;4988011;28;45698;-85
2021/12/26 08:14:55;;;;;;;;;11.67;10.33;;;;;12.43;72.93;99859.63;4973652;28;45318;-86
2021/12/26 08:17:21;;;;;;;;;10.33;9.00;;;;;12.72;72.92;99888.06;4988785;28;46368;-85
2021/12/26 08:19:46;;;;;;;;;13.67;12.33;;;;;13.00;73.02;99933.41;4981505;28;45314;-84
2021/12/26 08:22:12;;;;;;;;;12.33;11.00;;;;;13.39;72.89;99990.59;4984224;28;45413;-85
2021/12/26 08:24:37;;;;;;;;;13.67;11.33;;;;;13.37;72.87;99996.97;4976979;28;45741;-86
2021/12/26 08:27:03;;;;;;;;;12.67;10.67;;;;;13.03;73.17;99953.72;4991382;28;45664;-86
2021/12/26 08:29:28;;;;;;;;;13.67;10.00;;;;;13.39;73.07;99997.72;4990388;28;45226;-86
2021/12/26 08:31:57;;;;;;;;;12.00;12.00;;;;;12.79;73.09;99908.09;4980252;28;45458;-85
2021/12/26 08:34:23;;;;;;;;;11.33;11.33;;;;;12.79;72.96;99895.56;4984100;28;45643;-85
2021/12/26 08:36:54;;;;;;;;;12.33;10.33;;;;;13.43;73.31;100005.47;4987249;28;46158;-85
2021/12/26 08:39:20;;;;;;;;;9.67;9.67;;;;;12.93;73.00;99924.06;4984188;28;45432;-86
2021/12/26 08:41:45;;;;;;;;;10.33;10.33;;;;;12.47;73.00;99844.22;4977157;28;45413;-85
2021/12/26 08:44:16;;;;;;;;;15.33;13.00;;;;;13.17;73.26;99968.88;4983049;28;45529;-86
2021/12/26 08:46:42;;;;;;;;;17.00;12.33;;;;;12.46;73.17;99859.41;4991119;28;46270;-85
2021/12/26 08:49:07;;;;;;;;;15.67;13.00;;;;;12.75;73.48;99919.94;4989211;28;46433;-85
2021/12/26 08:51:32;;;;;;;;;11.00;10.33;;;;;12.66;73.41;99890.16;4993064;28;45653;-85
2021/12/26 08:54:00;;;;;;;;;13.00;11.33;;;;;13.07;73.41;99961.44;4993871;28;45346;-85
2021/12/26 08:56:25;;;;;;;;;14.00;14.00;;;;;12.92;73.36;99927.69;4977412;28;48241;-85
2021/12/26 08:58:50;;;;;;;;;20.00;18.67;;;;;12.66;73.34;99886.63;4976001;28;45390;-85
2021/12/26 09:01:16;;;;;;;;;26.00;24.67;;;;;12.68;73.64;99892.75;4985156;28;45308;-86
2021/12/26 09:03:41;;;;;;;;;21.00;17.33;;;;;13.51;73.58;100018.34;4993845;28;45353;-85
2021/12/26 09:06:07;;;;;;;;;20.00;18.00;;;;;12.46;73.32;99850.53;4993855;28;47190;-85
2021/12/26 09:08:33;;;;;;;;;11.67;11.00;;;;;12.74;73.22;99889.66;5008543;28;45720;-86
2021/12/26 09:10:58;;;;;;;;;12.33;11.00;;;;;12.60;72.93;99868.34;4982621;28;45437;-85
2021/12/26 09:13:24;;;;;;;;;13.67;13.33;;;;;13.44;72.96;100019.72;4976339;28;45485;-85
2021/12/26 09:15:50;;;;;;;;;33.67;29.00;;;;;12.82;73.01;99908.72;4995509;28;45455;-85
2021/12/26 09:18:15;;;;;;;;;21.33;19.33;;;;;13.13;72.90;99953.97;4996319;28;45425;-85
2021/12/26 09:20:40;;;;;;;;;36.00;33.00;;;;;12.87;72.81;99919.13;4983823;28;45440;-86
2021/12/26 09:23:06;;;;;;;;;36.33;35.33;;;;;13.05;72.76;99939.28;4988596;28;45278;-85
2021/12/26 09:25:31;;;;;;;;;15.33;12.67;;;;;13.70;72.95;100040.22;4992054;28;45537;-85
2021/12/26 09:27:56;;;;;;;;;11.00;9.00;;;;;12.74;72.59;99888.81;4985376;27;45532;-85
2021/12/26 09:30:22;;;;;;;;;12.33;11.00;;;;;13.46;72.95;99999.91;4991428;28;45560;-89
2021/12/26 09:32:49;;;;;;;;;17.00;14.00;;;;;13.71;72.62;100044.59;4982692;28;45751;-90
2021/12/26 09:35:14;;;;;;;;;17.33;14.33;;;;;13.15;72.29;99960.94;4991918;28;47219;-88
2021/12/26 09:37:43;;;;;;;;;23.67;17.00;;;;;12.21;72.65;99801.38;5009987;27;45638;-91
2021/12/26 09:40:10;;;;;;;;;22.00;21.00;;;;;13.10;72.54;99955.88;5024661;28;45287;-95
2021/12/26 09:42:37;;;;;;;;;12.67;12.33;;;;;13.38;72.95;99988.84;4975601;28;45273;-87
2021/12/26 09:45:05;;;;;;;;;9.00;9.00;;;;;13.04;73.06;99942.06;4985516;28;45416;-82
2021/12/26 09:47:30;;;;;;;;;14.00;9.00;;;;;13.03;72.87;99935.00;4980353;28;45637;-84
2021/12/26 09:49:57;;;;;;;;;9.67;9.67;;;;;13.48;72.87;100005.16;4996680;27;45509;-93
2021/12/26 09:52:22;;;;;;;;;14.67;13.00;;;;;13.10;72.66;99938.97;4989280;28;45597;-90
2021/12/26 09:54:48;;;;;;;;;15.33;12.00;;;;;13.07;72.69;99932.03;5005540;28;45510;-90
2021/12/26 09:57:13;;;;;;;;;15.00;11.67;;;;;12.35;72.56;99819.16;4990321;28;45474;-86
2021/12/26 09:59:40;;;;;;;;;11.67;10.67;;;;;13.65;72.20;100020.06;5006292;28;45494;-89
2021/12/26 10:02:11;;;;;;;;;6.67;5.67;;;;;13.75;72.65;100053.31;4999048;28;45439;-88
2021/12/26 10:04:37;;;;;;;;;10.33;8.00;;;;;13.75;72.58;100050.63;5004659;28;47580;-85
2021/12/26 10:07:14;;;;;;;;;11.67;9.67;;;;;12.83;72.27;99902.44;4993759;28;46199;-87
2021/12/26 10:09:42;;;;;;;;;11.00;9.33;;;;;13.77;72.89;100050.53;5009165;28;45480;-87
2021/12/26 10:12:12;;;;;;;;;15.00;11.33;;;;;12.88;72.65;99910.16;4989310;27;45810;-88
2021/12/26 10:14:38;;;;;;;;;9.33;5.67;;;;;12.77;72.63;99881.44;4985925;28;45461;-84
2021/12/26 10:17:17;;;;;;;;;13.33;13.33;;;;;13.36;72.70;99982.75;4997413;28;45292;-85
2021/12/26 10:19:45;;;;;;;;;10.00;9.00;;;;;13.78;72.79;100045.06;4989985;28;45376;-85
2021/12/26 10:22:13;;;;;;;;;8.33;8.33;;;;;13.18;72.38;99950.03;4985533;28;45441;-89
2021/12/26 10:24:41;;;;;;;;;8.00;7.67;;;;;13.43;72.66;99992.06;4976486;28;45399;-86
2021/12/26 10:27:13;;;;;;;;;7.00;5.33;;;;;13.16;73.10;99935.03;4993249;27;45851;-82
2021/12/26 10:29:49;;;;;;;;;9.33;9.00;;;;;12.95;72.97;99903.44;4975162;28;45546;-83
2021/12/26 10:32:26;;;;;;;;;8.67;8.67;;;;;12.86;72.76;99888.84;4975190;28;45481;-84
2021/12/26 10:35:07;;;;;;;;;7.33;7.33;;;;;13.13;73.05;99908.47;5017153;27;47439;-83
2021/12/26 10:37:37;;;;;;;;;12.67;10.00;;;;;13.44;72.93;99961.69;4989042;28;45488;-84
2021/12/26 10:40:10;;;;;;;;;9.00;9.00;;;;;13.79;73.10;100014.63;4999303;28;45398;-84
2021/12/26 10:42:39;;;;;;;;;11.00;9.00;;;;;13.71;72.89;99998.22;4993198;28;45668;-84
2021/12/26 10:45:09;;;;;;;;;12.00;9.00;;;;;13.28;72.91;99931.56;4994425;28;46008;-84
2021/12/26 10:47:36;;;;;;;;;5.67;4.67;;;;;13.76;72.65;99997.91;4992407;28;45909;-84
2021/12/26 10:50:19;;;;;;;;;64.75;49.00;;;;;13.54;72.63;99959.22;4993974;28;45410;-84
2021/12/26 10:52:58;;;;;;;;;40.33;34.33;;;;;13.47;72.76;99933.84;4997798;28;45676;-84
2021/12/26 10:55:38;;;;;;;;;7.33;7.33;;;;;13.59;73.32;99959.75;4994116;28;46301;-85
2021/12/26 10:58:06;;;;;;;;;7.00;5.00;;;;;13.14;73.25;99862.91;4999851;28;45525;-86
2021/12/26 11:00:42;;;;;;;;;7.33;7.00;;;;;13.69;72.74;99968.00;5010553;27;45300;-85
2021/12/26 11:03:11;;;;;;;;;9.67;7.33;;;;;13.80;73.10;99994.06;4994679;28;45615;-86
2021/12/26 11:05:51;;;;;;;;;8.00;8.00;;;;;13.19;74.04;99897.38;4993561;28;45514;-85
2021/12/26 11:08:44;;;;;;;;;10.00;9.33;;;;;13.79;73.95;99989.66;4984261;28;45734;-88
2021/12/26 11:11:47;;;;;;;;;9.67;9.67;;;;;12.40;74.45;99778.78;4996410;27;45393;-90
2021/12/26 11:14:16;;;;;;;;;8.33;8.33;;;;;13.18;76.30;99912.56;5019222;28;45459;-88
2021/12/26 11:24:09;;;;;;;;;7.33;6.00;;;;;13.72;77.06;100013.34;4956548;28;45628;-91
2021/12/26 11:27:28;;;;;;;;;9.67;8.33;;;;;13.73;77.20;100012.38;4949760;28;45401;-89